• Join FlightAware (Why Join?)
  • Login
  • US Flag 
09:03AM EDT


 

Airport Tracker/Info


-or-


 

Live Flight TrackerFlight Track Log ✈ ASQ4492 ✈ 09-Apr-2013 ✈ KDAL - KIAH

Flight Track Log - Related Links

Times and Time Zones

All times are in EDT time to prevent confusion due to time zone crossing. See the ASQ4492 flight status page for this flight to view local times or setup timezone preferences in your user account.

Time Position Orientation Groundspeed Altitude Reporting Facility
EDT Latitude Longitude Course Direction KTS MPH feet Rate Location/Type
06:10PM 32.8167 -96.8167 166° South 181 208 2,700  Level Dallas / Fort Worth TRACON
06:11PM 32.7667 -96.7667 140° Southeast 237 273 5,000 4,920 Climbing Dallas / Fort Worth TRACON
06:12PM 32.6508 -96.7449 164° South  Level Estimated
06:13PM 32.5854 -96.7094 168° South  Level Estimated
06:13PM 32.5731 -96.7897 186° South 280 322 21,000  Level Fort Worth Center
06:14PM 32.5142 -96.7220 189° South  Level FlightAware Approximate
06:14PM 32.4936 -96.7975 185° South 294 338 12,500  Level Fort Worth Center
06:15PM 32.4492 -96.6854 166° South  Level Estimated
06:15PM 32.3956 -96.8081 185° South 315 362 14,400  Level Fort Worth Center
06:16PM 32.3122 -96.8161 185° South 331 381 16,000 1,620 Climbing Fort Worth Center
06:17PM 32.2117 -96.7897 167° South 336 387 17,700 1,500 Climbing Fort Worth Center
06:18PM 32.1178 -96.7536 162° South 346 398 19,000 1,020 Climbing Fort Worth Center
06:19PM 32.0131 -96.7128 162° South 377 434 19,800 840 Climbing Fort Worth Center
06:20PM 31.9083 -96.6719 162° South 390 449 20,700 420 Climbing Fort Worth Center
06:22PM 31.7278 -96.6003 161° South 413 475 21,000 60 Climbing Houston Center
06:23PM 31.6164 -96.5542 161° South 417 480 21,000  Level Houston Center
06:24PM 31.5075 -96.5092 161° South 412 474 21,000  Level Houston Center
06:25PM 31.3967 -96.4683 163° South 411 473 21,000  Level Houston Center
06:26PM 31.2847 -96.4497 172° South 422 486 21,000 -360 Level Houston Center
06:27PM 31.1572 -96.4836 193° South 401 461 20,300 -900 Descending Houston Center
06:28PM 31.0492 -96.5133 193° South 395 455 19,200 -660 Descending Houston Center
06:29PM 30.9444 -96.4797 165° South 393 452 19,000 -120 Descending Houston Center
06:30PM 30.8503 -96.4417 161° South 360 414 19,000 -120 Level Houston Center
06:31PM 30.7828 -96.3533 132° Southeast 374 430 18,800 -1,020 Descending Houston Center
06:33PM 30.7192 -96.2556 127° Southeast 374 430 17,000 -1,680 Descending Houston Center
06:34PM 30.6589 -96.1653 128° Southeast 357 411 15,400 -1,800 Descending Houston Center
06:35PM 30.5981 -96.0756 128° Southeast 349 402 13,300 -2,100 Descending Houston Center
06:35PM 30.5375 -95.9889 129° Southeast 323 372 11,400 -1,680 Descending Houston Center
06:36PM 30.5011 -95.9325 127° Southeast 288 331 10,600 -960 Descending Houston Center
06:37PM 30.4864 -95.9078 125° Southeast 303 349 10,300 -660 Descending Houston Center
06:37PM 30.4556 -95.8653 130° Southeast 292 336 10,000 -300 Descending Houston Center
06:38PM 30.4342 -95.8378 132° Southeast 290 334 10,000 -360 Level Houston Center
06:38PM 30.3908 -95.7975 141° Southeast 274 315 9,600 -600 Descending Houston Center
06:39PM 30.3744 -95.7811 139° Southeast 278 320 9,400 -900 Descending Houston Center
06:39PM 30.3269 -95.7639 163° South 256 295 8,700 -1,200 Descending Houston Center
06:40PM 30.3017 -95.7847 215° Southwest 260 299 8,200 -720 Descending Houston Center
06:40PM 30.2683 -95.8119 215° Southwest 254 292 8,000 -240 Descending Houston Center
06:41PM 30.2428 -95.8317 214° Southwest 258 297 8,000  Level Houston Center
06:41PM 30.2117 -95.8594 218° Southwest 235 270 8,000  Level Houston Center
06:42PM 30.1903 -95.8772 216° Southwest 245 282 8,000  Level Houston Center
06:42PM 30.1606 -95.9017 215° Southwest 222 255 8,000  Level Houston Center
06:43PM 30.1397 -95.9150 209° Southwest 225 259 8,000  Level Houston Center
06:43PM 30.0989 -95.9161 181° South 223 257 8,000  Level Houston Center
06:44PM 30.0789 -95.9144 176° South 220 253 8,000  Level Houston Center
06:44PM 30.0461 -95.8883 145° Southeast 238 274 8,000  Level Houston Center
06:45PM 30.0372 -95.8653 114° Southeast 237 273 8,000 -300 Level Houston Center
06:45PM 30.0200 -95.8286 118° Southeast 188 216 7,700 -900 Descending Houston Center
06:46PM 30.0069 -95.7992 117° Southeast 196 226 7,100 -1,020 Descending Houston Center
06:46PM 29.9964 -95.7758 118° Southeast 181 208 6,700 -600 Descending Houston Center
06:47PM 29.9889 -95.7494 108° East 172 198 6,500 -540 Descending Houston Center
06:47PM 29.9914 -95.7186 85° East 177 204 6,200 -720 Descending Houston Center
06:48PM 29.9936 -95.6939 84° East 169 194 5,800 -1,020 Descending Houston Center
06:48PM 29.9908 -95.6656 96° East 165 190 5,200 -1,020 Descending Houston Center
06:49PM 29.9928 -95.6408 85° East 167 192 4,800 -900 Descending Houston Center
06:49PM 29.9928 -95.6172 90° East 162 186 4,400 -900 Descending Houston Center
06:50PM 29.9933 -95.5869 89° East 167 192 3,900 -900 Descending Houston Center
06:50PM 29.9917 -95.5594 94° East 180 207 3,500 -900 Descending Houston Center
06:51PM 29.9936 -95.5311 85° East 173 199 3,000 -900 Descending Houston Center
06:51PM 29.9936 -95.5086 90° East 144 166 2,600 -900 Descending Houston Center
06:52PM 29.9939 -95.4728 89° East 163 188 2,100 -840 Descending Houston Center
06:53PM 29.9928 -95.4531 94° East 151 174 1,700 -780 Descending Houston Center
06:53PM 29.9936 -95.4261 88° East 154 177 1,300 -660 Descending Houston Center